This is the latest recevied weather packets stored in our database for station/object W2GRK-15. If no packets are shown the sender has not sent any weather packets the latest 10 day(s).
| Time | Temp. | Humidity | Pressure | Rain* | Wind** | Luminosity | Snow |
|---|---|---|---|---|---|---|---|
| 1777862000 | 9.44° C | 54% | 1013.5 hPa | 0 mm | - | 0 W/m² | - |
| 1777861888 | 9.44° C | 54% | 1013.2 hPa | 0 mm | - | 0 W/m² | - |
| 1777861340 | 8.89° C | 59% | 1013.4 hPa | 0 mm | - | 0 W/m² | - |
| 1777860745 | 8.89° C | 57% | 1013.5 hPa | 0 mm | - | 0 W/m² | - |
| 1777858523 | 9.44° C | 55% | 1013 hPa | 0 mm | - | 0 W/m² | - |
| 1777858430 | 9.44° C | 56% | 1013.2 hPa | 0 mm | - | 0 W/m² | - |
| 1777858281 | 9.44° C | 56% | 1012.9 hPa | 0 mm | - | 0 W/m² | - |
| 1777857863 | 10° C | 54% | 1013 hPa | 0 mm | - | 0 W/m² | - |
| 1777857557 | 10° C | 53% | 1013.2 hPa | 0 mm | - | 0 W/m² | - |
| 1777857380 | 10° C | 54% | 1012.8 hPa | 0 mm | - | 0 W/m² | - |
| 1777857090 | 10° C | 55% | 1012.9 hPa | 0 mm | - | 0 W/m² | - |
| 1777857045 | 10° C | 55% | 1012.9 hPa | 0 mm | - | 0 W/m² | - |
| 1777856896 | 10° C | 54% | 1013.1 hPa | 0 mm | - | 0 W/m² | - |
| 1777856365 | 10.56° C | 51% | 1012.6 hPa | 0 mm | - | 0 W/m² | - |
| 1777856123 | 10.56° C | 50% | 1012.7 hPa | 0 mm | - | 0 W/m² | - |
| 1777856010 | 11.11° C | 50% | 1012.7 hPa | 0 mm | - | 0 W/m² | - |
| 1777855419 | 11.67° C | 49% | 1012.6 hPa | 0 mm | - | 0 W/m² | - |
| 1777855286 | 11.67° C | 48% | 1012.6 hPa | 0 mm | - | 0 W/m² | - |
| 1777855157 | 11.67° C | 47% | 1012.5 hPa | 0 mm | - | 0 W/m² | - |
| 1777854730 | 12.22° C | 44% | 1012.3 hPa | 0 mm | - | 0 W/m² | - |
| 1777854320 | 12.78° C | 38% | 1012.3 hPa | 0 mm | - | 0 W/m² | - |
| 1777853723 | 12.78° C | 38% | 1012.2 hPa | 0 mm | - | 0 W/m² | - |
| 1777853545 | 12.78° C | 38% | 1012 hPa | 0 mm | - | 0 W/m² | - |
| 1777852578 | 13.33° C | 39% | 1011.9 hPa | 0 mm | - | 2 W/m² | - |
| 1777852466 | 13.89° C | 36% | 1011.8 hPa | 0 mm | - | 3 W/m² | - |
* Rain latest hour (hover to see other rain measurements)
** Current wind speed in m/s (hover to see current wind gust speed)